Nova Ponte, Brazil
Current Conditions -  °F | °C
As of 8:00 AM on Monday 22 Dec 2014 (Local Time) from SBUL Reporting Station
Drizzle Drizzle  
Wind Chill: 66°   Ceiling: 1000
Heat Index: 66°   Visibility: 1.8mi
Dew Point: 64°   Wind: 7mph
Humidity: 94%   Direction: 50°NE
Pressure: 30.09"   Gusts: NA
Location:  19.15°S, 47.67°W
Report Text: SBUL 221000Z 05006KT 3000 -DZ SCT003 BKN010 19/18 Q1019
Loading
Personal Weather Stations






























Interactive Weather Map New forecast layout! Learn more

10-Day Weather Forecast

Advertisements
Track Severe Weather on mobile